Buoy 46770

sailwx.info

Track history (hours):
 
Tides and Currents Weather Stations Pressure Air Temp Water Temp Dewpoint Dewpoint Depression Visibility Wind Speed Wind Dir Waves Ship Positions

Drifting buoy 46770

Last reported at 2016-Aug-26 06:00 UTC. Time now 2016-Aug-26 08:34 UTC.
Position N 40°48' W 150°19'.

Barometer 1034.2 mb
Water temperature 21.9 ° C

Date/timePositionNaut miles runAvg speedWind from/ knotsBaromVisibWave heightAir tempDewpointWater temp
2016-Aug-26 06:00N 40°48' W 150°19'0 0.5 1034.2 21.9
2016-Aug-26 05:00N 40°48' W 150°19'0 0.3 1033.8 22.0
2016-Aug-26 04:00N 40°49' W 150°19'0 0.4 1033.6 22.0
2016-Aug-26 03:00N 40°48' W 150°18'1 1.0 1033.7 22.0
2016-Aug-26 02:00N 40°49' W 150°19'0 0.0 1033.9 22.0
2016-Aug-26 01:00N 40°49' W 150°19'0 0.4 1033.9 22.0
2016-Aug-26 00:00N 40°48' W 150°20'0 0.1 1034.2 22.0
2016-Aug-25 23:00N 40°48' W 150°20'1 0.7 1034.4 22.0
2016-Aug-25 22:00N 40°48' W 150°21'1 0.7 1034.6 21.8
2016-Aug-25 20:00N 40°47' W 150°20'1 0.3 1034.8 21.7
2016-Aug-25 18:00N 40°46' W 150°20'0 0.1 1034.1 21.7
2016-Aug-25 17:00N 40°46' W 150°20'2 0.8 1033.8 21.7
2016-Aug-25 15:00N 40°46' W 150°18'1 1.3 1033.1 21.7
2016-Aug-25 14:00N 40°46' W 150°16'0 0.0 1032.7 21.7
2016-Aug-25 13:00N 40°46' W 150°16'1 0.3 1032.4 21.7
2016-Aug-25 11:00N 40°47' W 150°17'2 0.6 1032.5 21.7
2016-Aug-25 08:00N 40°48' W 150°19'1 0.8 1032.5 21.7
2016-Aug-25 07:00N 40°47' W 150°20'1 0.7 1032.3 21.7
2016-Aug-25 06:00N 40°47' W 150°19'1 0.7 1032.0 21.7
2016-Aug-25 05:00N 40°46' W 150°20'0 0.2 1031.2 21.7
2016-Aug-25 03:00N 40°46' W 150°20'2 0.8 1029.8 21.8
2016-Aug-25 01:00N 40°45' W 150°19'1 0.7 1029.4 21.8
2016-Aug-25 00:00N 40°44' W 150°19'0 0.0 1029.0 21.7
2016-Aug-24 23:00N 40°44' W 150°19'1 0.2 1029.1 21.7
2016-Aug-24 19:00N 40°45' W 150°18'0 0.0 1028.3 21.6
2016-Aug-24 18:00N 40°45' W 150°18'0 0.3 1027.8 21.5
2016-Aug-24 17:00N 40°45' W 150°18'0 0.5 1027.5 21.5
2016-Aug-24 16:00N 40°45' W 150°18'1 0.9 1026.9 21.5
2016-Aug-24 15:00N 40°45' W 150°20'0 0.0 1026.3 21.5
2016-Aug-24 14:00N 40°45' W 150°20'1 0.6 1025.7 21.6
2016-Aug-24 13:00N 40°44' W 150°19'1 0.5 1025.3 21.6
2016-Aug-24 11:00N 40°43' W 150°20'2 0.5 1024.3 21.6
2016-Aug-24 07:00N 40°42' W 150°19'0 0.2 1023.4 21.6
2016-Aug-24 06:00N 40°42' W 150°19'0 0.3 1022.9 21.6
2016-Aug-24 05:00N 40°42' W 150°19'0 0.4 1021.9 21.6
2016-Aug-24 04:00N 40°42' W 150°20'0 0.4 1021.3 21.7
2016-Aug-24 03:00N 40°42' W 150°20'0 0.4 1020.8 21.7
2016-Aug-24 02:00N 40°42' W 150°21'2 0.6 1020.3 21.7
2016-Aug-23 23:00N 40°40' W 150°22'0 0.0 1019.8 21.7
2016-Aug-23 21:00N 40°40' W 150°22'1 0.5 1019.5 21.8
2016-Aug-23 19:00N 40°40' W 150°23'0 0.0 1018.8 21.8
2016-Aug-23 18:00N 40°40' W 150°23'1 1.1 1018.6 21.8
2016-Aug-23 17:00N 40°40' W 150°25'1 0.9 1018.0 21.8
2016-Aug-23 16:00N 40°39' W 150°25'0 0.0 1017.5 21.8
2016-Aug-23 15:00N 40°39' W 150°25'0 0.5 1017.0 21.8
2016-Aug-23 14:00N 40°39' W 150°25'1 0.7 1016.5 21.8
2016-Aug-23 12:00N 40°37' W 150°25'0 0.4 1016.4 21.9
2016-Aug-23 11:00N 40°37' W 150°25'0 0.0 1016.4 21.9
2016-Aug-23 08:00N 40°37' W 150°25'1 0.6 1016.9 22.0
2016-Aug-23 07:00N 40°38' W 150°25'1 0.7 1016.9 22.0
2016-Aug-23 06:00N 40°38' W 150°25'1 0.9 1016.7 22.0
2016-Aug-23 05:00N 40°38' W 150°26'0 0.2 1016.5 22.0
2016-Aug-23 04:00N 40°38' W 150°26'1 1.0 1016.1 22.0
2016-Aug-23 03:00N 40°38' W 150°28'1 1.2 1016.0 22.0
2016-Aug-23 02:00N 40°37' W 150°29'1 1.2 1015.7 22.0
2016-Aug-23 01:00N 40°36' W 150°29'1 0.5 1016.1 22.0
2016-Aug-22 23:00N 40°35' W 150°29'0 0.2 1017.0 22.0
2016-Aug-22 21:00N 40°35' W 150°29'0 0.1 1017.5 22.0
2016-Aug-22 19:00N 40°35' W 150°28'1 0.6 1017.7 22.0
2016-Aug-22 18:00N 40°35' W 150°29'0 0.0 1017.6 22.0
2016-Aug-22 17:00N 40°35' W 150°29'0 0.2 1017.7 22.0
2016-Aug-22 16:00N 40°35' W 150°30'0 0.5 1017.8 22.0
2016-Aug-22 15:00N 40°35' W 150°29'1 0.8 1017.6 22.0
2016-Aug-22 14:00N 40°34' W 150°30'1 0.6 1017.9 22.0
2016-Aug-22 13:00N 40°34' W 150°30'0 0.2 1018.2 22.1
2016-Aug-22 12:00N 40°34' W 150°30'0 0.0 1018.6 22.1
2016-Aug-22 11:00N 40°34' W 150°30'1 0.3 1019.1 22.1
2016-Aug-22 08:00N 40°33' W 150°31'0 0.1 1020.2 22.1
2016-Aug-22 07:00N 40°33' W 150°31'0 0.3 1020.7 22.1
2016-Aug-22 06:00N 40°33' W 150°31'0 0.3 1020.9 22.2
2016-Aug-22 05:00N 40°33' W 150°32'1 0.6 1020.8 22.2
2016-Aug-22 04:00N 40°33' W 150°32'1 0.3 1020.8 22.2
2016-Aug-22 02:00N 40°32' W 150°33'0 0.3 1021.0 22.2
2016-Aug-22 01:00N 40°32' W 150°33'2 0.8 1021.5 22.2
2016-Aug-21 23:00N 40°31' W 150°31'1 0.2 1022.6 22.2
2016-Aug-21 20:00N 40°31' W 150°31'1 0.6 1023.7 22.2
2016-Aug-21 18:00N 40°32' W 150°32'0 0.2 1023.9 22.2
2016-Aug-21 16:00N 40°32' W 150°33'1 0.5 1024.0 22.2
2016-Aug-21 14:00N 40°32' W 150°34'1 0.9 1024.0 22.3
2016-Aug-21 13:00N 40°31' W 150°35'2 2.0 1024.4 22.3
2016-Aug-21 12:00N 40°29' W 150°34'1 0.1 1024.9 22.3
2016-Aug-21 08:00N 40°29' W 150°33'0 0.3 1026.3 22.5
2016-Aug-21 07:00N 40°29' W 150°33'0 0.3 1026.7 22.5
2016-Aug-21 06:00N 40°29' W 150°32'1 0.6 1026.7 22.6
2016-Aug-21 05:00N 40°30' W 150°32'0 0.1 1026.6 22.7
2016-Aug-21 04:00N 40°30' W 150°32'1 0.7 1026.6 22.8
2016-Aug-21 03:00N 40°30' W 150°33'0 0.2 1026.8 22.8
2016-Aug-21 02:00N 40°30' W 150°33'0 0.2 1026.8 22.9
2016-Aug-21 01:00N 40°31' W 150°33'1 0.6 1027.0 22.7
2016-Aug-21 00:00N 40°30' W 150°34'1 0.5 1027.5 22.6
2016-Aug-20 23:00N 40°30' W 150°34'0 0.0 1028.0 22.5
2016-Aug-20 22:00N 40°30' W 150°34'1 0.3 1028.3 22.3
2016-Aug-20 18:00N 40°29' W 150°35'0 0.0 1029.0 22.1
2016-Aug-20 17:00N 40°29' W 150°35'1 0.3 1029.1 22.1
2016-Aug-20 15:00N 40°28' W 150°35'1 1.0 1028.7 22.1
2016-Aug-20 14:00N 40°29' W 150°34'1 0.8 1028.8 22.1
2016-Aug-20 13:00N 40°29' W 150°35'1 0.6 1029.0 22.1
2016-Aug-20 12:00N 40°29' W 150°34'0 0.0 1029.1 22.1
2016-Aug-20 08:00N 40°29' W 150°34'1 0.5 1030.6 22.2
2016-Aug-20 07:00N 40°29' W 150°35'0 0.4 1030.7 22.2
2016-Aug-20 06:00N 40°29' W 150°34'1 0.7 1030.6 22.2
2016-Aug-20 05:00N 40°29' W 150°35'0 0.1 1030.2 22.3
2016-Aug-20 04:00N 40°29' W 150°35'1 0.8 1030.0 22.4
2016-Aug-20 03:00N 40°29' W 150°36'0 0.4 1030.2 22.3
2016-Aug-20 02:00N 40°28' W 150°36'1 1.4 1030.2 22.3
2016-Aug-20 01:00N 40°28' W 150°37'0 0.1 1030.5 22.3
2016-Aug-20 00:00N 40°28' W 150°37'1 0.9 1031.0 22.3
2016-Aug-19 23:00N 40°27' W 150°36'0 0.0 1031.5 22.3
2016-Aug-19 22:00N 40°27' W 150°36'1 0.4 1031.6 22.2
2016-Aug-19 20:00N 40°27' W 150°35'0 0.3 1032.1 22.0
2016-Aug-19 19:00N 40°27' W 150°35'0 0.0 1032.0 21.9
2016-Aug-19 18:00N 40°27' W 150°35'0 0.0 1031.8 21.9
2016-Aug-19 17:00N 40°27' W 150°35'1 0.6 1031.6 21.9
2016-Aug-19 16:00N 40°27' W 150°36'0 0.1 1031.3 21.9
2016-Aug-19 15:00N 40°27' W 150°35'1 0.6 1031.0 21.9
2016-Aug-19 14:00N 40°28' W 150°36'1 0.5 1030.7 22.0
2016-Aug-19 12:00N 40°27' W 150°36'0 0.1 1031.3 22.0
2016-Aug-19 07:00N 40°27' W 150°36'0 0.0 1032.4 22.0
2016-Aug-19 06:00N 40°27' W 150°36'0 0.4 1032.0 22.0
2016-Aug-19 05:00N 40°26' W 150°36'0 0.4 1031.5 22.0
2016-Aug-19 04:00N 40°26' W 150°36'1 0.6 1031.0 22.0
2016-Aug-19 03:00N 40°26' W 150°37'0 0.1 1030.9 22.1
2016-Aug-19 02:00N 40°26' W 150°37'1 0.3 1030.7 22.1
2016-Aug-19 00:00N 40°25' W 150°37'0 0.0 1031.1 22.0
2016-Aug-18 22:00N 40°25' W 150°37'0 0.3 1031.4 21.8
2016-Aug-18 21:00N 40°25' W 150°37'1 0.3 1031.3 21.8
2016-Aug-18 19:00N 40°25' W 150°38'0 0.0 1030.9 21.7
2016-Aug-18 18:00N 40°25' W 150°38'0 0.5 1030.7 21.7
2016-Aug-18 17:00N 40°25' W 150°37'1 1.3 1030.5 21.7
2016-Aug-18 16:00N 40°25' W 150°39'0 0.4 1030.5 21.7
2016-Aug-18 15:00N 40°24' W 150°39'0 0.3 1029.7 21.7
2016-Aug-18 14:00N 40°24' W 150°39'1 0.7 1029.3 21.7
2016-Aug-18 12:00N 40°23' W 150°41'0 0.0 1029.3 21.7
2016-Aug-18 08:00N 40°23' W 150°41'1 0.5 1028.9 21.8
2016-Aug-18 07:00N 40°23' W 150°40'0 0.0 1028.5 21.8
2016-Aug-18 06:00N 40°23' W 150°40'0 0.0 1028.1 21.8
2016-Aug-18 05:00N 40°23' W 150°40'0 0.1 1027.5 21.8
2016-Aug-18 04:00N 40°23' W 150°40'1 0.6 1027.1 21.8
2016-Aug-18 03:00N 40°23' W 150°41'0 0.0 1027.1 21.8
2016-Aug-18 02:00N 40°23' W 150°41'0 0.4 1026.9 21.8
2016-Aug-18 01:00N 40°23' W 150°41'1 0.3 1026.9 21.8
2016-Aug-17 22:00N 40°23' W 150°42'2 1.7 1026.9 21.8
2016-Aug-17 21:00N 40°22' W 150°44'1 0.6 1026.9 21.7
2016-Aug-17 19:00N 40°21' W 150°44'0 0.0 1026.5 21.7
2016-Aug-17 18:00N 40°21' W 150°44'2 1.5 1026.3 21.7
2016-Aug-17 17:00N 40°20' W 150°45'0 0.2 1026.0 21.7
2016-Aug-17 15:00N 40°20' W 150°46'0 0.2 1025.5 21.8
2016-Aug-17 14:00N 40°20' W 150°46'0 0.0 1025.3 21.8
2016-Aug-17 13:00N 40°20' W 150°46'0 0.0 1025.6 21.8
2016-Aug-17 12:00N 40°20' W 150°46'2 1.6 1025.6 21.8
2016-Aug-17 11:00N 40°20' W 150°48'0 0.0 1025.7 21.8
2016-Aug-17 08:00N 40°20' W 150°48'1 0.6 1026.0 21.9
2016-Aug-17 07:00N 40°20' W 150°48'1 0.8 1026.0 21.9
2016-Aug-17 06:00N 40°20' W 150°49'1 0.9 1025.7 22.0
2016-Aug-17 05:00N 40°19' W 150°49'0 0.5 1025.3 22.0
2016-Aug-17 04:00N 40°18' W 150°49'1 0.7 1024.7 22.0
2016-Aug-17 03:00N 40°18' W 150°49'0 0.0 1024.8 22.0
2016-Aug-17 02:00N 40°18' W 150°49'0 0.0 1024.9 22.1
2016-Aug-17 01:00N 40°18' W 150°49'0 0.0 1024.9 22.1
2016-Aug-17 00:00N 40°18' W 150°49'1 0.6 1025.1 22.1
2016-Aug-16 23:00N 40°18' W 150°49'1 1.1 1025.2 22.1
2016-Aug-16 22:00N 40°18' W 150°51'2 0.6 1025.2 22.1
2016-Aug-16 18:00N 40°17' W 150°54'0 0.0 1024.5 22.1
2016-Aug-16 17:00N 40°17' W 150°54'1 1.0 1024.2 22.1
2016-Aug-16 16:00N 40°16' W 150°55'0 0.5 1024.0 22.1
2016-Aug-16 15:00N 40°16' W 150°55'1 1.0 1023.5 22.1
2016-Aug-16 14:00N 40°16' W 150°56'0 0.0 1023.3 22.1
2016-Aug-16 13:00N 40°16' W 150°56'0 0.0 1023.1 22.1
2016-Aug-16 11:00N 40°16' W 150°56'2 0.5 1023.1 22.2
2016-Aug-16 08:00N 40°16' W 150°58'0 0.0 1023.5 22.2
2016-Aug-16 07:00N 40°16' W 150°58'0 0.3 1023.5 22.2
2016-Aug-16 06:00N 40°16' W 150°58'   1023.0 22.3
Track history (hours):
 
Tides and Currents Weather Stations Pressure Air Temp Water Temp Dewpoint Dewpoint Depression Visibility Wind Speed Wind Dir Waves Ship Positions

Drifting buoy 46770

Last reported at 2016-Aug-26 06:00 UTC. Time now 2016-Aug-26 08:34 UTC.
Position N 40°48' W 150°19'.

Barometer 1034.2 mb
Water temperature 21.9 ° C

Date/timePositionNaut miles runAvg speedWind from/ knotsBaromVisibWave heightAir tempDewpointWater temp
2016-Aug-26 06:00N 40°48' W 150°19'0 0.5 1034.2 21.9
2016-Aug-26 05:00N 40°48' W 150°19'0 0.3 1033.8 22.0
2016-Aug-26 04:00N 40°49' W 150°19'0 0.4 1033.6 22.0
2016-Aug-26 03:00N 40°48' W 150°18'1 1.0 1033.7 22.0
2016-Aug-26 02:00N 40°49' W 150°19'0 0.0 1033.9 22.0
2016-Aug-26 01:00N 40°49' W 150°19'0 0.4 1033.9 22.0
2016-Aug-26 00:00N 40°48' W 150°20'0 0.1 1034.2 22.0
2016-Aug-25 23:00N 40°48' W 150°20'1 0.7 1034.4 22.0
2016-Aug-25 22:00N 40°48' W 150°21'1 0.7 1034.6 21.8
2016-Aug-25 20:00N 40°47' W 150°20'1 0.3 1034.8 21.7
2016-Aug-25 18:00N 40°46' W 150°20'0 0.1 1034.1 21.7
2016-Aug-25 17:00N 40°46' W 150°20'2 0.8 1033.8 21.7
2016-Aug-25 15:00N 40°46' W 150°18'1 1.3 1033.1 21.7
2016-Aug-25 14:00N 40°46' W 150°16'0 0.0 1032.7 21.7
2016-Aug-25 13:00N 40°46' W 150°16'1 0.3 1032.4 21.7
2016-Aug-25 11:00N 40°47' W 150°17'2 0.6 1032.5 21.7
2016-Aug-25 08:00N 40°48' W 150°19'1 0.8 1032.5 21.7
2016-Aug-25 07:00N 40°47' W 150°20'1 0.7 1032.3 21.7
2016-Aug-25 06:00N 40°47' W 150°19'1 0.7 1032.0 21.7
2016-Aug-25 05:00N 40°46' W 150°20'0 0.2 1031.2 21.7
2016-Aug-25 03:00N 40°46' W 150°20'2 0.8 1029.8 21.8
2016-Aug-25 01:00N 40°45' W 150°19'1 0.7 1029.4 21.8
2016-Aug-25 00:00N 40°44' W 150°19'0 0.0 1029.0 21.7
2016-Aug-24 23:00N 40°44' W 150°19'1 0.2 1029.1 21.7
2016-Aug-24 19:00N 40°45' W 150°18'0 0.0 1028.3 21.6
2016-Aug-24 18:00N 40°45' W 150°18'0 0.3 1027.8 21.5
2016-Aug-24 17:00N 40°45' W 150°18'0 0.5 1027.5 21.5
2016-Aug-24 16:00N 40°45' W 150°18'1 0.9 1026.9 21.5
2016-Aug-24 15:00N 40°45' W 150°20'0 0.0 1026.3 21.5
2016-Aug-24 14:00N 40°45' W 150°20'1 0.6 1025.7 21.6
2016-Aug-24 13:00N 40°44' W 150°19'1 0.5 1025.3 21.6
2016-Aug-24 11:00N 40°43' W 150°20'2 0.5 1024.3 21.6
2016-Aug-24 07:00N 40°42' W 150°19'0 0.2 1023.4 21.6
2016-Aug-24 06:00N 40°42' W 150°19'0 0.3 1022.9 21.6
2016-Aug-24 05:00N 40°42' W 150°19'0 0.4 1021.9 21.6
2016-Aug-24 04:00N 40°42' W 150°20'0 0.4 1021.3 21.7
2016-Aug-24 03:00N 40°42' W 150°20'0 0.4 1020.8 21.7
2016-Aug-24 02:00N 40°42' W 150°21'2 0.6 1020.3 21.7
2016-Aug-23 23:00N 40°40' W 150°22'0 0.0 1019.8 21.7
2016-Aug-23 21:00N 40°40' W 150°22'1 0.5 1019.5 21.8
2016-Aug-23 19:00N 40°40' W 150°23'0 0.0 1018.8 21.8
2016-Aug-23 18:00N 40°40' W 150°23'1 1.1 1018.6 21.8
2016-Aug-23 17:00N 40°40' W 150°25'1 0.9 1018.0 21.8
2016-Aug-23 16:00N 40°39' W 150°25'0 0.0 1017.5 21.8
2016-Aug-23 15:00N 40°39' W 150°25'0 0.5 1017.0 21.8
2016-Aug-23 14:00N 40°39' W 150°25'1 0.7 1016.5 21.8
2016-Aug-23 12:00N 40°37' W 150°25'0 0.4 1016.4 21.9
2016-Aug-23 11:00N 40°37' W 150°25'0 0.0 1016.4 21.9
2016-Aug-23 08:00N 40°37' W 150°25'1 0.6 1016.9 22.0
2016-Aug-23 07:00N 40°38' W 150°25'1 0.7 1016.9 22.0
2016-Aug-23 06:00N 40°38' W 150°25'1 0.9 1016.7 22.0
2016-Aug-23 05:00N 40°38' W 150°26'0 0.2 1016.5 22.0
2016-Aug-23 04:00N 40°38' W 150°26'1 1.0 1016.1 22.0
2016-Aug-23 03:00N 40°38' W 150°28'1 1.2 1016.0 22.0
2016-Aug-23 02:00N 40°37' W 150°29'1 1.2 1015.7 22.0
2016-Aug-23 01:00N 40°36' W 150°29'1 0.5 1016.1 22.0
2016-Aug-22 23:00N 40°35' W 150°29'0 0.2 1017.0 22.0
2016-Aug-22 21:00N 40°35' W 150°29'0 0.1 1017.5 22.0
2016-Aug-22 19:00N 40°35' W 150°28'1 0.6 1017.7 22.0
2016-Aug-22 18:00N 40°35' W 150°29'0 0.0 1017.6 22.0
2016-Aug-22 17:00N 40°35' W 150°29'0 0.2 1017.7 22.0
2016-Aug-22 16:00N 40°35' W 150°30'0 0.5 1017.8 22.0
2016-Aug-22 15:00N 40°35' W 150°29'1 0.8 1017.6 22.0
2016-Aug-22 14:00N 40°34' W 150°30'1 0.6 1017.9 22.0
2016-Aug-22 13:00N 40°34' W 150°30'0 0.2 1018.2 22.1
2016-Aug-22 12:00N 40°34' W 150°30'0 0.0 1018.6 22.1
2016-Aug-22 11:00N 40°34' W 150°30'1 0.3 1019.1 22.1
2016-Aug-22 08:00N 40°33' W 150°31'0 0.1 1020.2 22.1
2016-Aug-22 07:00N 40°33' W 150°31'0 0.3 1020.7 22.1
2016-Aug-22 06:00N 40°33' W 150°31'0 0.3 1020.9 22.2
2016-Aug-22 05:00N 40°33' W 150°32'1 0.6 1020.8 22.2
2016-Aug-22 04:00N 40°33' W 150°32'1 0.3 1020.8 22.2
2016-Aug-22 02:00N 40°32' W 150°33'0 0.3 1021.0 22.2
2016-Aug-22 01:00N 40°32' W 150°33'2 0.8 1021.5 22.2
2016-Aug-21 23:00N 40°31' W 150°31'1 0.2 1022.6 22.2
2016-Aug-21 20:00N 40°31' W 150°31'1 0.6 1023.7 22.2
2016-Aug-21 18:00N 40°32' W 150°32'0 0.2 1023.9 22.2
2016-Aug-21 16:00N 40°32' W 150°33'1 0.5 1024.0 22.2
2016-Aug-21 14:00N 40°32' W 150°34'1 0.9 1024.0 22.3
2016-Aug-21 13:00N 40°31' W 150°35'2 2.0 1024.4 22.3
2016-Aug-21 12:00N 40°29' W 150°34'1 0.1 1024.9 22.3
2016-Aug-21 08:00N 40°29' W 150°33'0 0.3 1026.3 22.5
2016-Aug-21 07:00N 40°29' W 150°33'0 0.3 1026.7 22.5
2016-Aug-21 06:00N 40°29' W 150°32'1 0.6 1026.7 22.6
2016-Aug-21 05:00N 40°30' W 150°32'0 0.1 1026.6 22.7
2016-Aug-21 04:00N 40°30' W 150°32'1 0.7 1026.6 22.8
2016-Aug-21 03:00N 40°30' W 150°33'0 0.2 1026.8 22.8
2016-Aug-21 02:00N 40°30' W 150°33'0 0.2 1026.8 22.9
2016-Aug-21 01:00N 40°31' W 150°33'1 0.6 1027.0 22.7
2016-Aug-21 00:00N 40°30' W 150°34'1 0.5 1027.5 22.6
2016-Aug-20 23:00N 40°30' W 150°34'0 0.0 1028.0 22.5
2016-Aug-20 22:00N 40°30' W 150°34'1 0.3 1028.3 22.3
2016-Aug-20 18:00N 40°29' W 150°35'0 0.0 1029.0 22.1
2016-Aug-20 17:00N 40°29' W 150°35'1 0.3 1029.1 22.1
2016-Aug-20 15:00N 40°28' W 150°35'1 1.0 1028.7 22.1
2016-Aug-20 14:00N 40°29' W 150°34'1 0.8 1028.8 22.1
2016-Aug-20 13:00N 40°29' W 150°35'1 0.6 1029.0 22.1
2016-Aug-20 12:00N 40°29' W 150°34'0 0.0 1029.1 22.1
2016-Aug-20 08:00N 40°29' W 150°34'1 0.5 1030.6 22.2
2016-Aug-20 07:00N 40°29' W 150°35'0 0.4 1030.7 22.2
2016-Aug-20 06:00N 40°29' W 150°34'1 0.7 1030.6 22.2
2016-Aug-20 05:00N 40°29' W 150°35'0 0.1 1030.2 22.3
2016-Aug-20 04:00N 40°29' W 150°35'1 0.8 1030.0 22.4
2016-Aug-20 03:00N 40°29' W 150°36'0 0.4 1030.2 22.3
2016-Aug-20 02:00N 40°28' W 150°36'1 1.4 1030.2 22.3
2016-Aug-20 01:00N 40°28' W 150°37'0 0.1 1030.5 22.3
2016-Aug-20 00:00N 40°28' W 150°37'1 0.9 1031.0 22.3
2016-Aug-19 23:00N 40°27' W 150°36'0 0.0 1031.5 22.3
2016-Aug-19 22:00N 40°27' W 150°36'1 0.4 1031.6 22.2
2016-Aug-19 20:00N 40°27' W 150°35'0 0.3 1032.1 22.0
2016-Aug-19 19:00N 40°27' W 150°35'0 0.0 1032.0 21.9
2016-Aug-19 18:00N 40°27' W 150°35'0 0.0 1031.8 21.9
2016-Aug-19 17:00N 40°27' W 150°35'1 0.6 1031.6 21.9
2016-Aug-19 16:00N 40°27' W 150°36'0 0.1 1031.3 21.9
2016-Aug-19 15:00N 40°27' W 150°35'1 0.6 1031.0 21.9
2016-Aug-19 14:00N 40°28' W 150°36'1 0.5 1030.7 22.0
2016-Aug-19 12:00N 40°27' W 150°36'0 0.1 1031.3 22.0
2016-Aug-19 07:00N 40°27' W 150°36'0 0.0 1032.4 22.0
2016-Aug-19 06:00N 40°27' W 150°36'0 0.4 1032.0 22.0
2016-Aug-19 05:00N 40°26' W 150°36'0 0.4 1031.5 22.0
2016-Aug-19 04:00N 40°26' W 150°36'1 0.6 1031.0 22.0
2016-Aug-19 03:00N 40°26' W 150°37'0 0.1 1030.9 22.1
2016-Aug-19 02:00N 40°26' W 150°37'1 0.3 1030.7 22.1
2016-Aug-19 00:00N 40°25' W 150°37'0 0.0 1031.1 22.0
2016-Aug-18 22:00N 40°25' W 150°37'0 0.3 1031.4 21.8
2016-Aug-18 21:00N 40°25' W 150°37'1 0.3 1031.3 21.8
2016-Aug-18 19:00N 40°25' W 150°38'0 0.0 1030.9 21.7
2016-Aug-18 18:00N 40°25' W 150°38'0 0.5 1030.7 21.7
2016-Aug-18 17:00N 40°25' W 150°37'1 1.3 1030.5 21.7
2016-Aug-18 16:00N 40°25' W 150°39'0 0.4 1030.5 21.7
2016-Aug-18 15:00N 40°24' W 150°39'0 0.3 1029.7 21.7
2016-Aug-18 14:00N 40°24' W 150°39'1 0.7 1029.3 21.7
2016-Aug-18 12:00N 40°23' W 150°41'0 0.0 1029.3 21.7
2016-Aug-18 08:00N 40°23' W 150°41'1 0.5 1028.9 21.8
2016-Aug-18 07:00N 40°23' W 150°40'0 0.0 1028.5 21.8
2016-Aug-18 06:00N 40°23' W 150°40'0 0.0 1028.1 21.8
2016-Aug-18 05:00N 40°23' W 150°40'0 0.1 1027.5 21.8
2016-Aug-18 04:00N 40°23' W 150°40'1 0.6 1027.1 21.8
2016-Aug-18 03:00N 40°23' W 150°41'0 0.0 1027.1 21.8
2016-Aug-18 02:00N 40°23' W 150°41'0 0.4 1026.9 21.8
2016-Aug-18 01:00N 40°23' W 150°41'1 0.3 1026.9 21.8
2016-Aug-17 22:00N 40°23' W 150°42'2 1.7 1026.9 21.8
2016-Aug-17 21:00N 40°22' W 150°44'1 0.6 1026.9 21.7
2016-Aug-17 19:00N 40°21' W 150°44'0 0.0 1026.5 21.7
2016-Aug-17 18:00N 40°21' W 150°44'2 1.5 1026.3 21.7
2016-Aug-17 17:00N 40°20' W 150°45'0 0.2 1026.0 21.7
2016-Aug-17 15:00N 40°20' W 150°46'0 0.2 1025.5 21.8
2016-Aug-17 14:00N 40°20' W 150°46'0 0.0 1025.3 21.8
2016-Aug-17 13:00N 40°20' W 150°46'0 0.0 1025.6 21.8
2016-Aug-17 12:00N 40°20' W 150°46'2 1.6 1025.6 21.8
2016-Aug-17 11:00N 40°20' W 150°48'0 0.0 1025.7 21.8
2016-Aug-17 08:00N 40°20' W 150°48'1 0.6 1026.0 21.9
2016-Aug-17 07:00N 40°20' W 150°48'1 0.8 1026.0 21.9
2016-Aug-17 06:00N 40°20' W 150°49'1 0.9 1025.7 22.0
2016-Aug-17 05:00N 40°19' W 150°49'0 0.5 1025.3 22.0
2016-Aug-17 04:00N 40°18' W 150°49'1 0.7 1024.7 22.0
2016-Aug-17 03:00N 40°18' W 150°49'0 0.0 1024.8 22.0
2016-Aug-17 02:00N 40°18' W 150°49'0 0.0 1024.9 22.1
2016-Aug-17 01:00N 40°18' W 150°49'0 0.0 1024.9 22.1
2016-Aug-17 00:00N 40°18' W 150°49'1 0.6 1025.1 22.1
2016-Aug-16 23:00N 40°18' W 150°49'1 1.1 1025.2 22.1
2016-Aug-16 22:00N 40°18' W 150°51'2 0.6 1025.2 22.1
2016-Aug-16 18:00N 40°17' W 150°54'0 0.0 1024.5 22.1
2016-Aug-16 17:00N 40°17' W 150°54'1 1.0 1024.2 22.1
2016-Aug-16 16:00N 40°16' W 150°55'0 0.5 1024.0 22.1
2016-Aug-16 15:00N 40°16' W 150°55'1 1.0 1023.5 22.1
2016-Aug-16 14:00N 40°16' W 150°56'0 0.0 1023.3 22.1
2016-Aug-16 13:00N 40°16' W 150°56'0 0.0 1023.1 22.1
2016-Aug-16 11:00N 40°16' W 150°56'2 0.5 1023.1 22.2
2016-Aug-16 08:00N 40°16' W 150°58'0 0.0 1023.5 22.2
2016-Aug-16 07:00N 40°16' W 150°58'0 0.3 1023.5 22.2
2016-Aug-16 06:00N 40°16' W 150°58'   1023.0 22.3

Dump ship's entire track history